createdAt,value
2023-03-17T00:00:47.112Z,5.51
2023-03-17T00:03:50.379Z,5.52
2023-03-17T00:06:54.974Z,5.59
2023-03-17T00:09:57.500Z,5.65
2023-03-17T00:13:00.076Z,5.58
2023-03-17T00:16:04.395Z,5.63
2023-03-17T00:19:07.582Z,5.58
2023-03-17T00:22:16.637Z,5.66
2023-03-17T00:25:23.226Z,5.80
2023-03-17T00:28:27.170Z,5.77
2023-03-17T00:31:30.608Z,5.90
2023-03-17T00:34:34.311Z,5.95
2023-03-17T00:37:39.619Z,5.91
2023-03-17T00:40:42.288Z,5.93
2023-03-17T00:43:45.548Z,5.87
2023-03-17T00:46:48.297Z,6.00
2023-03-17T00:49:51.090Z,6.12
2023-03-17T00:52:57.550Z,6.17
2023-03-17T00:56:00.479Z,6.21
2023-03-17T00:59:03.818Z,6.24
2023-03-17T01:02:07.112Z,6.26
2023-03-17T01:05:10.584Z,6.21
2023-03-17T01:08:14.894Z,6.30
2023-03-17T01:11:19.509Z,6.38
2023-03-17T01:14:22.506Z,6.45
2023-03-17T01:17:25.084Z,6.50
2023-03-17T01:20:29.684Z,6.48
2023-03-17T01:23:33.928Z,6.51
2023-03-17T01:26:36.636Z,6.55
2023-03-17T01:29:39.484Z,6.51
2023-03-17T01:32:42.018Z,6.53
2023-03-17T01:35:46.027Z,6.57
2023-03-17T01:38:50.904Z,6.56
2023-03-17T01:41:56.911Z,6.52
2023-03-17T01:45:01.894Z,6.54
2023-03-17T01:48:04.640Z,6.51
2023-03-17T01:51:08.484Z,6.47
2023-03-17T01:54:16.447Z,6.43
2023-03-17T01:57:21.279Z,6.47
2023-03-17T02:00:26.565Z,6.47
2023-03-17T02:03:29.821Z,6.42
2023-03-17T02:06:33.064Z,6.33
2023-03-17T02:09:37.133Z,6.24
2023-03-17T02:12:40.480Z,6.26
2023-03-17T02:15:44.967Z,6.28
2023-03-17T02:18:47.694Z,6.24
2023-03-17T02:21:53.297Z,6.18
2023-03-17T02:24:58.156Z,6.16
2023-03-17T02:28:03.443Z,6.06
2023-03-17T02:31:06.244Z,5.98
2023-03-17T02:34:08.912Z,5.94
2023-03-17T02:37:13.093Z,5.88
2023-03-17T02:40:16.588Z,5.96
2023-03-17T02:43:19.310Z,6.02
2023-03-17T02:46:21.944Z,6.09
2023-03-17T02:49:24.700Z,6.08
2023-03-17T02:52:28.685Z,6.07
2023-03-17T02:55:31.698Z,6.04
2023-03-17T02:58:34.240Z,5.99
2023-03-17T03:01:38.806Z,6.03
2023-03-17T03:04:41.802Z,5.96
2023-03-17T03:07:45.565Z,5.89
2023-03-17T03:10:47.899Z,5.86
2023-03-17T03:13:50.361Z,5.83
2023-03-17T03:16:53.040Z,5.82
2023-03-17T03:19:55.555Z,5.85
2023-03-17T03:22:59.422Z,5.73
2023-03-17T03:26:02.219Z,5.59
2023-03-17T03:29:05.311Z,5.42
2023-03-17T03:32:08.359Z,5.23
2023-03-17T03:35:11.546Z,5.32
2023-03-17T03:38:15.739Z,5.21
2023-03-17T03:41:18.251Z,5.03
2023-03-17T03:44:20.916Z,4.93
2023-03-17T03:47:23.419Z,5.06
2023-03-17T03:50:26.118Z,5.01
2023-03-17T03:53:30.336Z,5.06
2023-03-17T03:56:32.932Z,4.86
2023-03-17T03:59:35.401Z,4.78
2023-03-17T04:02:38.006Z,4.71
2023-03-17T04:05:40.630Z,4.70
2023-03-17T04:08:44.539Z,4.69
2023-03-17T04:11:46.940Z,4.61
2023-03-17T04:14:49.497Z,4.72
2023-03-17T04:17:54.848Z,4.60
2023-03-17T04:20:57.379Z,4.45
2023-03-17T04:24:01.489Z,4.40
2023-03-17T04:27:05.996Z,4.37
2023-03-17T04:30:13.510Z,4.28
2023-03-17T04:33:16.329Z,4.34
2023-03-17T04:36:20.361Z,4.26
2023-03-17T04:39:24.166Z,4.14
2023-03-17T04:42:26.529Z,4.06
2023-03-17T04:45:29.404Z,4.06
2023-03-17T04:48:32.608Z,4.07
2023-03-17T04:51:36.729Z,4.06
2023-03-17T04:54:40.945Z,3.97
2023-03-17T04:57:43.516Z,3.98
2023-03-17T05:00:46.018Z,3.97
2023-03-17T05:03:48.871Z,3.96
2023-03-17T05:06:51.867Z,3.94
2023-03-17T05:09:55.688Z,3.94
2023-03-17T05:12:58.128Z,3.85
2023-03-17T05:16:01.461Z,3.92
2023-03-17T05:19:04.110Z,3.91
2023-03-17T05:22:07.175Z,3.96
2023-03-17T05:25:11.244Z,3.76
2023-03-17T05:28:14.052Z,3.82
2023-03-17T05:31:16.592Z,3.90
2023-03-17T05:34:19.134Z,3.85
2023-03-17T05:37:21.618Z,3.88
2023-03-17T05:40:25.508Z,3.97
2023-03-17T05:43:27.930Z,4.08
2023-03-17T05:46:30.651Z,4.26
2023-03-17T05:49:33.177Z,4.21
2023-03-17T05:52:35.822Z,4.26
2023-03-17T05:55:40.603Z,4.23
2023-03-17T05:58:43.346Z,4.24
2023-03-17T06:01:46.258Z,4.25
2023-03-17T06:04:49.040Z,4.28
2023-03-17T06:07:56.089Z,4.37
2023-03-17T06:11:00.744Z,4.53
2023-03-17T06:14:03.299Z,4.63
2023-03-17T06:17:06.307Z,4.74
2023-03-17T06:20:11.741Z,4.87
2023-03-17T06:23:14.420Z,4.86
2023-03-17T06:26:18.294Z,4.86
2023-03-17T06:29:21.860Z,5.00
2023-03-17T06:32:24.608Z,5.06
2023-03-17T06:35:27.598Z,5.14
2023-03-17T06:38:30.176Z,5.20
2023-03-17T06:41:34.178Z,5.31
2023-03-17T06:44:37.855Z,5.65
2023-03-17T06:47:40.354Z,5.83
2023-03-17T06:50:42.994Z,5.93
2023-03-17T06:53:45.714Z,6.09
2023-03-17T06:56:49.583Z,6.41
2023-03-17T06:59:52.351Z,6.72
2023-03-17T07:02:54.929Z,7.03
2023-03-17T07:05:58.036Z,7.26
2023-03-17T07:09:02.302Z,7.51
2023-03-17T07:12:07.109Z,7.92
2023-03-17T07:15:12.456Z,8.25
2023-03-17T07:18:15.007Z,8.58
2023-03-17T07:21:17.635Z,8.95
2023-03-17T07:24:20.219Z,9.19
2023-03-17T07:27:25.366Z,9.39
2023-03-17T07:30:28.631Z,9.45
2023-03-17T07:33:33.763Z,9.44
2023-03-17T07:36:36.372Z,9.51
2023-03-17T07:39:39.817Z,9.60
2023-03-17T07:42:43.735Z,9.71
2023-03-17T07:45:46.989Z,9.63
2023-03-17T07:48:49.983Z,9.57
2023-03-17T07:51:52.456Z,9.58
2023-03-17T07:54:55.853Z,9.59
2023-03-17T07:58:00.400Z,9.77
2023-03-17T08:01:03.430Z,9.93
2023-03-17T08:04:07.511Z,10.02
2023-03-17T08:07:10.425Z,10.20
2023-03-17T08:10:13.917Z,10.52
2023-03-17T08:13:18.747Z,10.73
2023-03-17T08:16:21.945Z,10.93
2023-03-17T08:19:24.670Z,11.12
2023-03-17T08:22:27.749Z,11.58
2023-03-17T08:25:31.607Z,11.73
2023-03-17T08:28:36.232Z,11.85
2023-03-17T08:31:40.540Z,11.83
2023-03-17T08:34:44.470Z,11.84
2023-03-17T08:37:47.569Z,11.78
2023-03-17T08:40:50.878Z,11.65
2023-03-17T08:43:56.042Z,11.65
2023-03-17T08:46:58.532Z,11.93
2023-03-17T08:50:01.243Z,12.22
2023-03-17T08:53:04.293Z,12.36
2023-03-17T08:56:08.344Z,12.61
2023-03-17T08:59:12.407Z,12.97
2023-03-17T09:02:15.894Z,13.21
2023-03-17T09:05:19.382Z,13.30
2023-03-17T09:08:22.589Z,13.63
2023-03-17T09:11:27.111Z,14.11
2023-03-17T09:14:40.095Z,14.45
2023-03-17T09:17:45.332Z,14.77
2023-03-17T09:20:48.002Z,14.80
2023-03-17T09:23:50.609Z,14.78
2023-03-17T09:26:53.125Z,14.87
2023-03-17T09:29:57.007Z,14.71
2023-03-17T09:33:00.531Z,14.55
2023-03-17T09:36:03.065Z,14.46
2023-03-17T09:39:06.107Z,14.60
2023-03-17T09:42:20.327Z,14.86
2023-03-17T09:45:31.400Z,15.03
2023-03-17T09:48:51.333Z,15.08
2023-03-17T09:51:54.265Z,15.10
2023-03-17T09:54:57.386Z,15.41
2023-03-17T09:58:00.776Z,15.60
2023-03-17T10:01:05.331Z,15.55
2023-03-17T10:04:09.369Z,15.76
2023-03-17T10:07:13.458Z,16.22
2023-03-17T10:10:21.926Z,16.74
2023-03-17T10:13:30.663Z,17.10
2023-03-17T10:16:42.568Z,17.24
2023-03-17T10:19:47.040Z,17.92
2023-03-17T10:22:52.888Z,18.33
2023-03-17T10:25:56.630Z,18.68
2023-03-17T10:28:59.805Z,19.15
2023-03-17T10:32:04.195Z,19.56
2023-03-17T10:35:08.026Z,20.01
2023-03-17T10:38:16.920Z,20.40
2023-03-17T10:41:19.401Z,21.06
2023-03-17T10:44:24.678Z,21.38
2023-03-17T10:47:32.121Z,21.56
2023-03-17T10:50:37.706Z,21.42
2023-03-17T10:53:43.337Z,21.20
2023-03-17T10:56:48.060Z,21.00
2023-03-17T10:59:55.597Z,20.88
2023-03-17T11:03:00.793Z,21.18
2023-03-17T11:06:05.303Z,20.96
2023-03-17T11:09:11.035Z,21.30
2023-03-17T11:12:23.876Z,21.46
2023-03-17T11:15:30.092Z,21.69
2023-03-17T11:18:37.261Z,21.73
2023-03-17T11:21:48.594Z,21.80
2023-03-17T11:24:59.370Z,21.36
2023-03-17T11:28:16.253Z,21.33
2023-03-17T11:31:27.996Z,21.79
2023-03-17T11:34:45.281Z,21.33
2023-03-17T11:38:00.847Z,21.90
2023-03-17T11:41:21.353Z,21.97
2023-03-17T11:44:59.593Z,22.64
2023-03-17T11:48:16.310Z,22.83
2023-03-17T11:51:27.585Z,23.50
2023-03-17T11:54:40.181Z,23.56
2023-03-17T11:57:45.906Z,23.70
2023-03-17T12:00:52.609Z,23.67
2023-03-17T12:04:10.767Z,23.13
2023-03-17T12:07:20.706Z,23.64
2023-03-17T12:10:25.658Z,23.65
2023-03-17T12:13:32.581Z,23.59
2023-03-17T12:16:39.663Z,23.35
2023-03-17T12:19:45.369Z,23.65
2023-03-17T12:22:55.908Z,23.33
2023-03-17T12:26:03.753Z,23.91
2023-03-17T12:29:12.590Z,24.71
2023-03-17T12:32:20.954Z,25.11
2023-03-17T12:35:27.886Z,25.83
2023-03-17T12:38:37.202Z,25.66
2023-03-17T12:42:02.836Z,25.46
2023-03-17T12:45:25.529Z,24.99
2023-03-17T12:48:47.293Z,24.96
2023-03-17T12:51:58.170Z,25.35
2023-03-17T12:55:04.053Z,25.28
2023-03-17T12:58:16.253Z,25.89
2023-03-17T13:01:26.865Z,25.75
2023-03-17T13:04:32.931Z,25.38
2023-03-17T13:07:38.870Z,25.23
2023-03-17T13:10:44.383Z,25.48
2023-03-17T13:13:59.138Z,26.23
2023-03-17T13:17:05.534Z,27.04
2023-03-17T13:20:16.034Z,27.75
2023-03-17T13:23:21.634Z,27.37
2023-03-17T13:26:56.275Z,27.12
2023-03-17T13:29:59.026Z,27.11
2023-03-17T13:33:23.130Z,26.71
2023-03-17T13:36:34.577Z,25.96
2023-03-17T13:40:00.876Z,26.00
2023-03-17T13:43:12.979Z,25.88
2023-03-17T13:46:26.510Z,26.42
2023-03-17T13:49:32.056Z,26.90
2023-03-17T13:52:41.114Z,27.65
2023-03-17T13:56:24.692Z,28.00
2023-03-17T13:59:36.831Z,27.42
2023-03-17T14:02:40.791Z,27.06
2023-03-17T14:05:44.293Z,27.89
2023-03-17T14:08:49.246Z,29.83
2023-03-17T14:11:52.042Z,30.11
2023-03-17T14:14:58.499Z,30.34
2023-03-17T14:18:04.353Z,30.29
2023-03-17T14:21:11.635Z,30.79
2023-03-17T14:24:23.041Z,29.99
2023-03-17T14:27:26.482Z,29.50
2023-03-17T14:30:32.534Z,29.32
2023-03-17T14:33:38.370Z,29.41
2023-03-17T14:36:41.483Z,28.70
2023-03-17T14:39:45.853Z,28.23
2023-03-17T14:42:48.355Z,27.98
2023-03-17T14:45:53.935Z,26.72
2023-03-17T14:48:59.207Z,26.03
2023-03-17T14:52:02.578Z,26.08
2023-03-17T14:55:06.757Z,26.37
2023-03-17T14:58:11.013Z,28.82
2023-03-17T15:01:17.319Z,31.64
2023-03-17T15:04:21.502Z,32.59
2023-03-17T15:07:33.196Z,30.44
2023-03-17T15:10:42.919Z,29.82
2023-03-17T15:13:45.523Z,27.84
2023-03-17T15:16:52.391Z,26.16
2023-03-17T15:19:57.646Z,25.36
2023-03-17T15:23:01.724Z,24.56
2023-03-17T15:26:09.848Z,24.16
2023-03-17T15:29:12.420Z,23.97
2023-03-17T15:32:19.299Z,24.06
2023-03-17T15:35:21.785Z,23.84
2023-03-17T15:38:24.712Z,23.35
2023-03-17T15:41:27.185Z,23.14
2023-03-17T15:44:29.916Z,22.90
2023-03-17T15:47:35.295Z,22.68
2023-03-17T15:50:39.251Z,22.45
2023-03-17T15:53:41.749Z,22.24
2023-03-17T15:56:44.475Z,21.95
2023-03-17T15:59:47.094Z,21.68
2023-03-17T16:02:53.882Z,21.46
2023-03-17T16:05:56.736Z,21.18
2023-03-17T16:08:59.258Z,20.97
2023-03-17T16:12:02.949Z,20.78
2023-03-17T16:15:20.191Z,20.65
2023-03-17T16:18:32.499Z,20.44
2023-03-17T16:21:35.004Z,20.19
2023-03-17T16:24:37.524Z,19.99
2023-03-17T16:27:40.048Z,19.74
2023-03-17T16:30:43.057Z,19.50
2023-03-17T16:33:48.388Z,19.33
2023-03-17T16:36:51.421Z,19.16
2023-03-17T16:39:54.075Z,18.96
2023-03-17T16:42:57.686Z,18.78
2023-03-17T16:46:02.561Z,18.61
2023-03-17T16:49:06.709Z,18.51
2023-03-17T16:52:10.488Z,18.36
2023-03-17T16:55:13.581Z,18.21
2023-03-17T16:58:18.131Z,18.06
2023-03-17T17:01:23.550Z,17.79
2023-03-17T17:04:27.588Z,17.69
2023-03-17T17:07:30.131Z,17.54
2023-03-17T17:10:34.135Z,17.44
2023-03-17T17:13:38.142Z,17.27
2023-03-17T17:16:41.113Z,17.13
2023-03-17T17:19:45.415Z,16.90
2023-03-17T17:22:48.517Z,16.78
2023-03-17T17:25:51.601Z,16.58
2023-03-17T17:28:54.265Z,16.51
2023-03-17T17:31:56.821Z,16.46
2023-03-17T17:35:00.816Z,16.72
2023-03-17T17:38:03.460Z,16.91
2023-03-17T17:41:08.847Z,16.96
2023-03-17T17:44:11.312Z,16.77
2023-03-17T17:47:14.065Z,16.69
2023-03-17T17:50:21.114Z,16.53
2023-03-17T17:53:23.886Z,16.46
2023-03-17T17:56:26.706Z,16.29
2023-03-17T17:59:29.414Z,16.11
2023-03-17T18:02:31.964Z,15.96
2023-03-17T18:05:36.837Z,15.75
2023-03-17T18:08:39.829Z,15.60
2023-03-17T18:11:42.591Z,15.57
2023-03-17T18:14:45.281Z,15.46
2023-03-17T18:17:47.903Z,15.29
2023-03-17T18:20:52.476Z,15.23
2023-03-17T18:23:55.765Z,15.13
2023-03-17T18:26:58.239Z,15.03
2023-03-17T18:30:00.822Z,14.93
2023-03-17T18:33:07.559Z,14.82
2023-03-17T18:36:12.115Z,14.74
2023-03-17T18:39:15.283Z,14.64
2023-03-17T18:42:17.988Z,14.69
2023-03-17T18:45:20.659Z,14.69
2023-03-17T18:48:23.158Z,14.63
2023-03-17T18:51:27.048Z,14.55
2023-03-17T18:54:31.559Z,14.38
2023-03-17T18:57:34.537Z,14.38
2023-03-17T19:00:37.060Z,14.40
2023-03-17T19:03:39.543Z,14.40
2023-03-17T19:06:43.448Z,14.38
2023-03-17T19:09:46.208Z,14.28
2023-03-17T19:12:50.505Z,14.26
2023-03-17T19:15:53.372Z,14.15
2023-03-17T19:18:56.755Z,14.06
2023-03-17T19:22:00.823Z,14.03
2023-03-17T19:25:04.279Z,13.97
2023-03-17T19:28:07.110Z,14.03
2023-03-17T19:31:10.235Z,14.11
2023-03-17T19:34:15.303Z,14.26
2023-03-17T19:37:19.286Z,14.20
2023-03-17T19:40:22.330Z,14.07
2023-03-17T19:43:39.451Z,13.90
2023-03-17T19:46:42.807Z,13.74
2023-03-17T19:49:45.873Z,13.64
2023-03-17T19:52:52.342Z,13.55
2023-03-17T19:55:56.611Z,13.52
2023-03-17T19:58:59.330Z,13.49
2023-03-17T20:02:02.129Z,13.67
2023-03-17T20:05:05.176Z,13.70
2023-03-17T20:08:09.479Z,13.71
2023-03-17T20:11:13.275Z,13.60
2023-03-17T20:14:15.924Z,13.57
2023-03-17T20:17:18.692Z,13.49
2023-03-17T20:20:21.253Z,13.39
2023-03-17T20:23:25.940Z,13.40
2023-03-17T20:26:28.736Z,13.44
2023-03-17T20:29:31.499Z,13.48
2023-03-17T20:32:34.392Z,13.53
2023-03-17T20:35:37.488Z,13.46
2023-03-17T20:38:43.634Z,13.45
2023-03-17T20:41:46.544Z,13.49
2023-03-17T20:44:52.783Z,13.43
2023-03-17T20:47:56.004Z,13.38
2023-03-17T20:50:59.352Z,13.43
2023-03-17T20:54:03.758Z,13.44
2023-03-17T20:57:07.269Z,13.58
2023-03-17T21:00:12.527Z,13.72
2023-03-17T21:03:15.025Z,13.79
2023-03-17T21:06:18.599Z,13.71
2023-03-17T21:09:22.283Z,13.52
2023-03-17T21:12:26.103Z,13.43
2023-03-17T21:15:29.490Z,13.35
2023-03-17T21:18:31.928Z,13.35
2023-03-17T21:21:35.013Z,13.40
2023-03-17T21:24:39.739Z,13.38
2023-03-17T21:27:42.663Z,13.37
2023-03-17T21:30:45.495Z,13.34
2023-03-17T21:33:50.327Z,13.32
2023-03-17T21:36:52.983Z,13.28
2023-03-17T21:39:57.582Z,13.26
2023-03-17T21:43:00.957Z,13.30
2023-03-17T21:46:03.502Z,13.29
2023-03-17T21:49:06.580Z,13.21
2023-03-17T21:52:09.741Z,13.08
2023-03-17T21:55:13.825Z,12.98
2023-03-17T21:58:16.513Z,12.89
2023-03-17T22:01:21.687Z,12.85
2023-03-17T22:04:25.919Z,12.87
2023-03-17T22:07:29.190Z,12.98
2023-03-17T22:10:33.545Z,13.10
2023-03-17T22:13:36.356Z,13.22
2023-03-17T22:16:39.879Z,13.34
2023-03-17T22:19:43.879Z,13.36
2023-03-17T22:22:46.431Z,13.32
2023-03-17T22:25:50.606Z,13.39
2023-03-17T22:28:53.114Z,13.48
2023-03-17T22:31:55.711Z,13.50
2023-03-17T22:34:58.325Z,13.44
2023-03-17T22:38:01.508Z,13.31
2023-03-17T22:41:07.849Z,13.20
2023-03-17T22:44:11.369Z,13.12
2023-03-17T22:47:13.944Z,13.00
2023-03-17T22:50:16.953Z,13.00
2023-03-17T22:53:19.484Z,12.93
2023-03-17T22:56:23.426Z,12.81
2023-03-17T22:59:25.942Z,12.65
2023-03-17T23:02:28.527Z,12.52
2023-03-17T23:05:31.045Z,12.51
2023-03-17T23:08:35.431Z,12.70
2023-03-17T23:11:40.306Z,12.92
2023-03-17T23:14:43.602Z,13.11
2023-03-17T23:17:46.267Z,13.28
2023-03-17T23:20:49.339Z,13.27
2023-03-17T23:23:51.920Z,13.31
2023-03-17T23:26:55.856Z,13.44
2023-03-17T23:29:59.194Z,13.50
2023-03-17T23:33:01.871Z,13.55
2023-03-17T23:36:04.613Z,13.67
2023-03-17T23:39:07.503Z,13.63
2023-03-17T23:42:11.616Z,13.52
2023-03-17T23:45:15.159Z,13.42
2023-03-17T23:48:17.770Z,13.35
2023-03-17T23:51:20.271Z,13.29
2023-03-17T23:54:22.889Z,13.29
2023-03-17T23:57:26.774Z,13.24
